createdAt,value
2023-04-10T00:00:30.931Z,68.2106
2023-04-10T00:01:34.152Z,68.2710
2023-04-10T00:02:37.533Z,68.3458
2023-04-10T00:03:41.140Z,68.4242
2023-04-10T00:04:44.477Z,68.5408
2023-04-10T00:05:47.675Z,68.5259
2023-04-10T00:06:47.885Z,68.5845
2023-04-10T00:07:51.102Z,68.8028
2023-04-10T00:08:54.471Z,68.9281
2023-04-10T00:09:57.681Z,68.9403
2023-04-10T00:11:00.897Z,68.9334
2023-04-10T00:12:04.107Z,69.0722
2023-04-10T00:13:07.379Z,69.1697
2023-04-10T00:14:10.578Z,69.2525
2023-04-10T00:15:13.800Z,69.2626
2023-04-10T00:16:17.056Z,69.2459
2023-04-10T00:17:20.382Z,69.2683
2023-04-10T00:18:23.593Z,69.4266
2023-04-10T00:19:26.825Z,69.6189
2023-04-10T00:20:30.019Z,69.7262
2023-04-10T00:21:33.239Z,69.7276
2023-04-10T00:22:36.441Z,69.7759
2023-04-10T00:23:39.691Z,69.8972
2023-04-10T00:24:42.919Z,69.9178
2023-04-10T00:25:46.140Z,70.1801
2023-04-10T00:26:49.362Z,70.2463
2023-04-10T00:27:52.607Z,70.3786
2023-04-10T00:28:55.815Z,70.5655
2023-04-10T00:29:59.026Z,70.6784
2023-04-10T00:31:02.266Z,70.7708
2023-04-10T00:32:05.499Z,70.8300
2023-04-10T00:33:08.708Z,70.8956
2023-04-10T00:34:12.101Z,70.9054
2023-04-10T00:35:15.318Z,70.8639
2023-04-10T00:36:18.540Z,70.8100
2023-04-10T00:37:21.771Z,70.8931
2023-04-10T00:38:24.993Z,70.9932
2023-04-10T00:39:28.202Z,71.2866
2023-04-10T00:40:28.412Z,71.3662
2023-04-10T00:41:28.392Z,71.4755
2023-04-10T00:42:31.663Z,71.3708
2023-04-10T00:43:34.882Z,71.4020
2023-04-10T00:44:38.163Z,71.5612
2023-04-10T00:45:41.497Z,71.6121
2023-04-10T00:46:44.738Z,71.6892
2023-04-10T00:47:48.031Z,71.8094
2023-04-10T00:48:51.326Z,71.9165
2023-04-10T00:49:54.604Z,71.9302
2023-04-10T00:50:57.855Z,71.9479
2023-04-10T00:51:58.527Z,72.1149
2023-04-10T00:52:58.473Z,72.2277
2023-04-10T00:54:01.784Z,72.2126
2023-04-10T00:55:05.066Z,72.2067
2023-04-10T00:56:08.324Z,72.2054
2023-04-10T00:57:11.758Z,72.2174
2023-04-10T00:58:14.972Z,72.3253
2023-04-10T00:59:18.259Z,72.3508
2023-04-10T01:00:21.492Z,72.3305
2023-04-10T01:01:21.561Z,72.3507
2023-04-10T01:02:24.919Z,72.2992
2023-04-10T01:03:25.098Z,72.4626
2023-04-10T01:04:25.095Z,72.4723
2023-04-10T01:05:28.423Z,72.5294
2023-04-10T01:06:31.706Z,72.6434
2023-04-10T01:07:34.958Z,72.6933
2023-04-10T01:08:38.240Z,72.7124
2023-04-10T01:09:38.246Z,72.7684
2023-04-10T01:10:41.527Z,72.9633
2023-04-10T01:11:41.517Z,73.1373
2023-04-10T01:12:44.793Z,73.2988
2023-04-10T01:13:44.888Z,73.3891
2023-04-10T01:14:48.139Z,73.4589
2023-04-10T01:15:51.425Z,73.4933
2023-04-10T01:16:54.751Z,73.5556
2023-04-10T01:17:58.003Z,73.6808
2023-04-10T01:19:01.262Z,73.8447
2023-04-10T01:20:04.514Z,73.7573
2023-04-10T01:21:07.770Z,73.8341
2023-04-10T01:22:11.072Z,73.9779
2023-04-10T01:23:14.304Z,73.9375
2023-04-10T01:24:17.599Z,73.9188
2023-04-10T01:25:20.826Z,74.0513
2023-04-10T01:26:24.104Z,74.0740
2023-04-10T01:27:27.372Z,74.1407
2023-04-10T01:28:30.637Z,74.0713
2023-04-10T01:29:33.903Z,74.1216
2023-04-10T01:30:37.250Z,74.1199
2023-04-10T01:31:37.310Z,74.0836
2023-04-10T01:32:40.612Z,74.0235
2023-04-10T01:33:43.878Z,74.0848
2023-04-10T01:34:47.137Z,74.3247
2023-04-10T01:35:50.437Z,74.3493
2023-04-10T01:36:50.563Z,74.3577
2023-04-10T01:37:53.842Z,74.4430
2023-04-10T01:38:57.104Z,74.5040
2023-04-10T01:40:00.379Z,74.4609
2023-04-10T01:41:03.668Z,74.8097
2023-04-10T01:42:06.940Z,74.9427
2023-04-10T01:43:10.232Z,75.0383
2023-04-10T01:44:13.510Z,74.9878
2023-04-10T01:45:16.750Z,75.0424
2023-04-10T01:46:20.010Z,75.2152
2023-04-10T01:47:23.282Z,75.3892
2023-04-10T01:48:26.520Z,75.4281
2023-04-10T01:49:29.788Z,75.6886
2023-04-10T01:50:33.048Z,75.6759
2023-04-10T01:51:36.329Z,75.6447
2023-04-10T01:52:39.625Z,75.7246
2023-04-10T01:53:42.894Z,75.7717
2023-04-10T01:54:46.114Z,75.8680
2023-04-10T01:55:49.396Z,75.7660
2023-04-10T01:56:52.641Z,75.9945
2023-04-10T01:57:55.945Z,75.9987
2023-04-10T01:58:59.401Z,75.7996
2023-04-10T02:00:02.648Z,75.8118
2023-04-10T02:01:05.911Z,75.9815
2023-04-10T02:02:06.045Z,75.9622
2023-04-10T02:03:09.575Z,75.9098
2023-04-10T02:04:09.738Z,76.0778
2023-04-10T02:05:21.625Z,76.0575
2023-04-10T02:06:14.660Z,75.9662
2023-04-10T02:07:17.904Z,76.1449
2023-04-10T02:08:21.225Z,76.0805
2023-04-10T02:09:24.449Z,76.1696
2023-04-10T02:10:27.779Z,75.9855
2023-04-10T02:11:31.044Z,76.2280
2023-04-10T02:12:34.269Z,76.3622
2023-04-10T02:13:37.685Z,76.3685
2023-04-10T02:14:40.933Z,76.4728
2023-04-10T02:15:44.225Z,76.6375
2023-04-10T02:16:44.254Z,76.7308
2023-04-10T02:17:47.545Z,76.6515
2023-04-10T02:18:50.787Z,76.5524
2023-04-10T02:19:54.068Z,76.5907
2023-04-10T02:20:57.300Z,76.5209
2023-04-10T02:22:00.555Z,76.4483
2023-04-10T02:23:04.069Z,76.4172
2023-04-10T02:24:03.868Z,76.3342
2023-04-10T02:25:07.095Z,76.3744
2023-04-10T02:26:10.837Z,76.3527
2023-04-10T02:27:10.553Z,76.5362
2023-04-10T02:28:13.798Z,76.4816
2023-04-10T02:29:17.036Z,76.4205
2023-04-10T02:30:20.274Z,76.5821
2023-04-10T02:31:23.545Z,76.6000
2023-04-10T02:32:26.904Z,76.6361
2023-04-10T02:33:30.140Z,76.7636
2023-04-10T02:34:33.431Z,76.7173
2023-04-10T02:35:37.179Z,76.6880
2023-04-10T02:36:37.205Z,76.6354
2023-04-10T02:37:37.161Z,76.7636
2023-04-10T02:38:37.070Z,76.7128
2023-04-10T02:39:40.366Z,76.7450
2023-04-10T02:40:43.600Z,76.7364
2023-04-10T02:41:46.882Z,76.8555
2023-04-10T02:42:50.118Z,76.8995
2023-04-10T02:43:53.617Z,76.9763
2023-04-10T02:44:53.596Z,77.0355
2023-04-10T02:45:56.872Z,76.9679
2023-04-10T02:47:00.923Z,77.0253
2023-04-10T02:48:00.703Z,77.0975
2023-04-10T02:49:03.943Z,77.2467
2023-04-10T02:50:07.209Z,77.3061
2023-04-10T02:51:10.483Z,77.4450
2023-04-10T02:52:13.711Z,77.3337
2023-04-10T02:53:16.946Z,77.2946
2023-04-10T02:54:17.029Z,77.2531
2023-04-10T02:55:20.300Z,77.2454
2023-04-10T02:56:23.526Z,77.3093
2023-04-10T02:57:26.801Z,77.4001
2023-04-10T02:58:30.050Z,77.4506
2023-04-10T02:59:33.288Z,77.4727
2023-04-10T03:00:36.522Z,77.4229
2023-04-10T03:01:40.075Z,77.4383
2023-04-10T03:02:43.438Z,77.4167
2023-04-10T03:03:43.415Z,77.4527
2023-04-10T03:04:46.758Z,77.6498
2023-04-10T03:05:50.012Z,77.6762
2023-04-10T03:06:53.265Z,77.9045
2023-04-10T03:07:56.497Z,77.7902
2023-04-10T03:08:59.790Z,77.7427
2023-04-10T03:10:03.452Z,77.7609
2023-04-10T03:11:03.182Z,77.7730
2023-04-10T03:12:06.428Z,77.7483
2023-04-10T03:13:09.694Z,77.9033
2023-04-10T03:14:13.060Z,78.0831
2023-04-10T03:15:16.731Z,78.0021
2023-04-10T03:16:16.513Z,77.8078
2023-04-10T03:17:19.742Z,77.7517
2023-04-10T03:18:23.000Z,77.7669
2023-04-10T03:19:26.238Z,77.7786
2023-04-10T03:20:29.997Z,77.8314
2023-04-10T03:21:30.264Z,77.8934
2023-04-10T03:22:33.513Z,77.9527
2023-04-10T03:23:37.133Z,77.9852
2023-04-10T03:24:36.941Z,77.8099
2023-04-10T03:25:40.196Z,77.6667
2023-04-10T03:26:40.388Z,77.7444
2023-04-10T03:27:43.656Z,77.7928
2023-04-10T03:28:46.945Z,77.8253
2023-04-10T03:29:50.200Z,77.8702
2023-04-10T03:30:53.454Z,77.9932
2023-04-10T03:31:56.779Z,78.0094
2023-04-10T03:32:56.690Z,78.0325
2023-04-10T03:34:00.210Z,78.0822
2023-04-10T03:35:03.482Z,78.0456
2023-04-10T03:36:06.745Z,78.1112
2023-04-10T03:37:10.046Z,78.2013
2023-04-10T03:38:13.369Z,78.2480
2023-04-10T03:39:13.433Z,78.2721
2023-04-10T03:40:16.669Z,78.4448
2023-04-10T03:41:19.959Z,78.6812
2023-04-10T03:42:23.241Z,78.4691
2023-04-10T03:43:26.505Z,78.6512
2023-04-10T03:44:29.757Z,78.8628
2023-04-10T03:45:33.056Z,79.0822
2023-04-10T03:46:33.072Z,79.0134
2023-04-10T03:47:36.331Z,78.8844
2023-04-10T03:48:39.574Z,78.8217
2023-04-10T03:49:42.819Z,78.8745
2023-04-10T03:50:46.061Z,79.0746
2023-04-10T03:51:49.327Z,79.1322
2023-04-10T03:52:52.588Z,78.9977
2023-04-10T03:53:56.121Z,79.0724
2023-04-10T03:54:56.065Z,79.0955
2023-04-10T03:55:59.460Z,79.2177
2023-04-10T03:57:03.270Z,79.1518
2023-04-10T03:58:03.029Z,79.0358
2023-04-10T03:59:06.302Z,79.0397
2023-04-10T04:00:09.514Z,79.1086
2023-04-10T04:01:12.763Z,79.0901
2023-04-10T04:02:16.289Z,78.9988
2023-04-10T04:03:19.832Z,79.0656
2023-04-10T04:04:20.174Z,79.0277
2023-04-10T04:05:20.070Z,79.1490
2023-04-10T04:06:23.298Z,79.2382
2023-04-10T04:07:26.574Z,79.3480
2023-04-10T04:08:29.922Z,79.2938
2023-04-10T04:09:33.224Z,79.2894
2023-04-10T04:10:36.443Z,79.1622
2023-04-10T04:11:39.688Z,79.0560
2023-04-10T04:12:42.909Z,79.0965
2023-04-10T04:13:46.169Z,79.1882
2023-04-10T04:14:49.611Z,79.2423
2023-04-10T04:15:52.971Z,79.2308
2023-04-10T04:16:56.262Z,79.2146
2023-04-10T04:17:59.525Z,79.2241
2023-04-10T04:19:02.826Z,79.1859
2023-04-10T04:20:06.107Z,79.2176
2023-04-10T04:21:09.311Z,79.2179
2023-04-10T04:22:12.950Z,79.4201
2023-04-10T04:23:16.167Z,79.5203
2023-04-10T04:24:19.430Z,79.6820
2023-04-10T04:25:22.649Z,79.7678
2023-04-10T04:26:25.921Z,79.5738
2023-04-10T04:27:29.172Z,79.9079
2023-04-10T04:28:32.413Z,80.3907
2023-04-10T04:29:35.922Z,80.3301
2023-04-10T04:30:36.300Z,80.5217
2023-04-10T04:31:36.123Z,80.5854
2023-04-10T04:32:39.400Z,80.7753
2023-04-10T04:33:43.100Z,80.8827
2023-04-10T04:34:42.887Z,81.0974
2023-04-10T04:35:46.200Z,81.2082
2023-04-10T04:36:49.429Z,81.5690
2023-04-10T04:37:52.732Z,82.0248
2023-04-10T04:38:55.959Z,82.0856
2023-04-10T04:39:59.226Z,82.4343
2023-04-10T04:41:02.467Z,83.0139
2023-04-10T04:42:03.761Z,83.1959
2023-04-10T04:43:07.011Z,82.9917
2023-04-10T04:44:10.680Z,81.9990
2023-04-10T04:45:10.542Z,81.0218
2023-04-10T04:46:13.841Z,80.5924
2023-04-10T04:47:17.125Z,80.3293
2023-04-10T04:48:20.383Z,80.1706
2023-04-10T04:49:24.054Z,79.9064
2023-04-10T04:50:24.870Z,79.6138
2023-04-10T04:51:24.689Z,79.4869
2023-04-10T04:52:27.949Z,79.4633
2023-04-10T04:53:31.188Z,79.6193
2023-04-10T04:54:34.432Z,79.7758
2023-04-10T04:55:37.787Z,79.9736
2023-04-10T04:56:40.994Z,80.1535
2023-04-10T04:57:44.274Z,80.2009
2023-04-10T04:58:47.496Z,80.1579
2023-04-10T04:59:50.747Z,80.1497
2023-04-10T05:00:54.046Z,80.1377
2023-04-10T05:01:58.306Z,79.9595
2023-04-10T05:02:58.225Z,80.0257
2023-04-10T05:04:01.570Z,80.1086
2023-04-10T05:05:04.869Z,80.0878
2023-04-10T05:06:08.699Z,80.0327
2023-04-10T05:07:08.464Z,80.0350
2023-04-10T05:08:11.695Z,80.1199
2023-04-10T05:09:14.967Z,80.0799
2023-04-10T05:10:18.195Z,80.0442
2023-04-10T05:11:21.590Z,79.9222
2023-04-10T05:12:23.449Z,79.8430
2023-04-10T05:13:26.709Z,79.7959
2023-04-10T05:14:29.980Z,79.8204
2023-04-10T05:15:33.281Z,79.7551
2023-04-10T05:16:36.772Z,79.7303
2023-04-10T05:17:36.575Z,79.7674
2023-04-10T05:18:39.802Z,79.8310
2023-04-10T05:19:41.385Z,79.9599
2023-04-10T05:20:44.657Z,79.8851
2023-04-10T05:21:49.258Z,79.8158
2023-04-10T05:22:49.124Z,79.9266
2023-04-10T05:23:52.351Z,79.8755
2023-04-10T05:24:55.855Z,79.8633
2023-04-10T05:25:59.115Z,79.8750
2023-04-10T05:27:02.439Z,79.9040
2023-04-10T05:28:05.623Z,79.8415
2023-04-10T05:29:08.938Z,79.8143
2023-04-10T05:30:12.164Z,79.8324
2023-04-10T05:31:15.466Z,79.7286
2023-04-10T05:32:18.734Z,79.6088
2023-04-10T05:33:21.992Z,79.7409
2023-04-10T05:34:25.216Z,79.8672
2023-04-10T05:35:28.494Z,79.7455
2023-04-10T05:36:31.725Z,79.6985
2023-04-10T05:37:34.971Z,79.6819
2023-04-10T05:38:38.223Z,79.6006
2023-04-10T05:39:38.298Z,79.5279
2023-04-10T05:40:41.497Z,79.2956
2023-04-10T05:41:44.752Z,79.2770
2023-04-10T05:42:47.995Z,79.0508
2023-04-10T05:43:51.259Z,79.1283
2023-04-10T05:44:54.485Z,79.2692
2023-04-10T05:45:57.829Z,79.2612
2023-04-10T05:47:01.076Z,79.1955
2023-04-10T05:48:04.690Z,78.8750
2023-04-10T05:49:04.466Z,79.0562
2023-04-10T05:50:07.725Z,79.2658
2023-04-10T05:51:11.004Z,79.4432
2023-04-10T05:52:14.224Z,79.2893
2023-04-10T05:53:17.481Z,79.1242
2023-04-10T05:54:20.738Z,79.0918
2023-04-10T05:55:23.969Z,78.9975
2023-04-10T05:56:27.257Z,78.9753
2023-04-10T05:57:30.473Z,78.9607
2023-04-10T05:58:33.742Z,78.7823
2023-04-10T05:59:36.980Z,78.9295
2023-04-10T06:00:40.243Z,78.7243
2023-04-10T06:01:43.485Z,78.6403
2023-04-10T06:02:46.941Z,78.6666
2023-04-10T06:03:46.966Z,78.5215
2023-04-10T06:04:46.916Z,78.4620
2023-04-10T06:05:50.158Z,78.4434
2023-04-10T06:06:53.412Z,78.3821
2023-04-10T06:07:58.352Z,78.6654
2023-04-10T06:08:58.438Z,78.5561
2023-04-10T06:10:01.656Z,78.0510
2023-04-10T06:11:04.911Z,78.2191
2023-04-10T06:12:08.187Z,78.2706
2023-04-10T06:13:11.465Z,78.2001
2023-04-10T06:14:14.710Z,77.9390
2023-04-10T06:15:17.952Z,77.8004
2023-04-10T06:16:21.220Z,77.8173
2023-04-10T06:17:24.484Z,77.9906
2023-04-10T06:18:27.744Z,77.9297
2023-04-10T06:19:31.002Z,77.5689
2023-04-10T06:20:34.272Z,77.4450
2023-04-10T06:21:37.540Z,77.4111
2023-04-10T06:22:40.839Z,77.3771
2023-04-10T06:23:44.067Z,77.3503
2023-04-10T06:24:47.306Z,77.0885
2023-04-10T06:25:50.562Z,77.2120
2023-04-10T06:26:53.797Z,77.8116
2023-04-10T06:27:57.061Z,77.6818
2023-04-10T06:29:00.352Z,77.3862
2023-04-10T06:30:03.667Z,77.4589
2023-04-10T06:31:06.882Z,76.8222
2023-04-10T06:32:10.123Z,76.2192
2023-04-10T06:33:13.381Z,75.5190
2023-04-10T06:34:16.639Z,74.7789
2023-04-10T06:35:19.875Z,74.5639
2023-04-10T06:36:23.173Z,73.9896
2023-04-10T06:37:26.515Z,73.9022
2023-04-10T06:38:29.840Z,74.1693
2023-04-10T06:39:33.087Z,73.3541
2023-04-10T06:40:36.417Z,70.6785
2023-04-10T06:41:39.624Z,70.8806
2023-04-10T06:42:42.858Z,71.4817
2023-04-10T06:43:46.132Z,71.2731
2023-04-10T06:44:49.423Z,69.8625
2023-04-10T06:45:52.762Z,70.2011
2023-04-10T06:46:55.998Z,69.8477
2023-04-10T06:47:59.427Z,68.9370
2023-04-10T06:49:03.373Z,67.4611
2023-04-10T06:50:03.185Z,67.3741
2023-04-10T06:51:06.480Z,66.6796
2023-04-10T06:52:09.756Z,67.8571
2023-04-10T06:53:13.000Z,67.3708
2023-04-10T06:54:16.285Z,66.7192
2023-04-10T06:55:19.557Z,64.4927
2023-04-10T06:56:22.990Z,66.3960
2023-04-10T06:57:26.248Z,65.0186
2023-04-10T06:58:29.477Z,65.3798
2023-04-10T06:59:32.766Z,65.3273
2023-04-10T07:00:36.002Z,65.6530
2023-04-10T07:01:39.287Z,64.9384
2023-04-10T07:02:42.624Z,63.7126
2023-04-10T07:03:46.007Z,62.2846
2023-04-10T07:04:50.411Z,60.4593
2023-04-10T07:05:50.281Z,62.7254
2023-04-10T07:06:53.543Z,64.0412
2023-04-10T07:07:56.798Z,60.3892
2023-04-10T07:09:00.078Z,58.8594
2023-04-10T07:10:03.336Z,63.2442
2023-04-10T07:11:07.025Z,65.2029
2023-04-10T07:12:07.076Z,63.4435
2023-04-10T07:13:07.873Z,63.1551
2023-04-10T07:14:08.076Z,64.9987
2023-04-10T07:15:08.360Z,63.6814
2023-04-10T07:16:08.182Z,64.2284
2023-04-10T07:17:11.418Z,63.6562
2023-04-10T07:18:11.714Z,62.3845
2023-04-10T07:19:14.961Z,61.7552
2023-04-10T07:20:18.466Z,60.4468
2023-04-10T07:21:21.704Z,59.1625
2023-04-10T07:22:24.992Z,55.4437
2023-04-10T07:23:28.494Z,54.9731
2023-04-10T07:24:28.294Z,54.4248
2023-04-10T07:25:28.402Z,58.2418
2023-04-10T07:26:31.687Z,57.3874
2023-04-10T07:27:34.991Z,58.3369
2023-04-10T07:28:38.293Z,57.2903
2023-04-10T07:29:41.809Z,55.7868
2023-04-10T07:30:41.651Z,58.5509
2023-04-10T07:31:45.002Z,56.0756
2023-04-10T07:32:45.354Z,57.2971
2023-04-10T07:33:45.230Z,57.3263
2023-04-10T07:34:48.500Z,57.5980
2023-04-10T07:35:51.796Z,56.1126
2023-04-10T07:36:55.074Z,61.3919
2023-04-10T07:37:55.197Z,62.1452
2023-04-10T07:38:58.534Z,63.0577
2023-04-10T07:40:01.788Z,60.2746
2023-04-10T07:41:05.082Z,61.6328
2023-04-10T07:42:08.509Z,61.3569
2023-04-10T07:43:11.788Z,62.8047
2023-04-10T07:44:15.048Z,62.1437
2023-04-10T07:45:15.116Z,62.9229
2023-04-10T07:46:18.904Z,59.9088
2023-04-10T07:47:18.741Z,58.8905
2023-04-10T07:48:22.037Z,56.3282
2023-04-10T07:49:25.366Z,56.0663
2023-04-10T07:50:28.638Z,60.5307
2023-04-10T07:51:31.970Z,60.3620
2023-04-10T07:52:35.247Z,59.5316
2023-04-10T07:53:35.290Z,56.8434
2023-04-10T07:54:38.609Z,56.6570
2023-04-10T07:55:39.560Z,60.0549
2023-04-10T07:56:39.507Z,59.1287
2023-04-10T07:57:43.049Z,59.2521
2023-04-10T07:58:42.866Z,58.6911
2023-04-10T07:59:46.146Z,57.8144
2023-04-10T08:00:46.771Z,56.4566
2023-04-10T08:01:50.133Z,60.2746
2023-04-10T08:02:50.342Z,58.9268
2023-04-10T08:03:50.415Z,56.0154
2023-04-10T08:04:50.492Z,53.8369
2023-04-10T08:05:50.428Z,54.8283
2023-04-10T08:06:53.697Z,54.0590
2023-04-10T08:07:57.125Z,51.1266
2023-04-10T08:09:00.447Z,53.1217
2023-04-10T08:10:03.798Z,55.1691
2023-04-10T08:11:07.052Z,55.7881
2023-04-10T08:12:10.389Z,53.3532
2023-04-10T08:13:10.408Z,57.0013
2023-04-10T08:14:13.765Z,59.4731
2023-04-10T08:15:14.760Z,59.0881
2023-04-10T08:16:18.120Z,58.8196
2023-04-10T08:17:21.495Z,58.6547
2023-04-10T08:18:22.312Z,56.2776
2023-04-10T08:19:25.666Z,55.2248
2023-04-10T08:20:28.998Z,53.2558
2023-04-10T08:21:32.420Z,54.0066
2023-04-10T08:22:35.684Z,52.5889
2023-04-10T08:23:38.979Z,50.9508
2023-04-10T08:24:42.299Z,47.5660
2023-04-10T08:25:45.593Z,48.9570
2023-04-10T08:26:49.562Z,52.5263
2023-04-10T08:27:49.456Z,52.5094
2023-04-10T08:28:53.047Z,53.0643
2023-04-10T08:29:53.118Z,53.4877
2023-04-10T08:30:56.498Z,52.8316
2023-04-10T08:31:59.804Z,52.3279
2023-04-10T08:33:03.203Z,53.2358
2023-04-10T08:34:06.533Z,51.7918
2023-04-10T08:35:09.934Z,51.5427
2023-04-10T08:36:10.044Z,51.4527
2023-04-10T08:37:13.360Z,52.4799
2023-04-10T08:38:16.759Z,54.1733
2023-04-10T08:39:20.059Z,50.2894
2023-04-10T08:40:23.409Z,51.4703
2023-04-10T08:41:23.639Z,51.6075
2023-04-10T08:43:29.482Z,52.7104
2023-04-10T08:43:29.482Z,53.4726
2023-04-10T08:44:32.771Z,50.1937
2023-04-10T08:45:36.262Z,47.6486
2023-04-10T08:46:39.794Z,48.7163
2023-04-10T08:47:39.749Z,48.7753
2023-04-10T08:48:43.029Z,46.7705
2023-04-10T08:49:46.387Z,50.2324
2023-04-10T08:50:49.717Z,51.7344
2023-04-10T08:51:53.240Z,52.6705
2023-04-10T08:52:56.570Z,52.6063
2023-04-10T08:53:59.929Z,48.5333
2023-04-10T08:55:03.217Z,46.1874
2023-04-10T08:56:06.569Z,50.2722
2023-04-10T08:57:11.054Z,52.0308
2023-04-10T08:58:10.992Z,52.1716
2023-04-10T08:59:14.299Z,50.3388
2023-04-10T09:01:19.823Z,51.3088
2023-04-10T09:02:23.152Z,49.7537
2023-04-10T09:03:26.605Z,52.2746
2023-04-10T09:04:26.584Z,51.3600
2023-04-10T09:05:29.943Z,52.3132
2023-04-10T09:06:33.300Z,50.7157
2023-04-10T09:07:36.607Z,50.7456
2023-04-10T09:08:39.961Z,48.3322
2023-04-10T09:09:43.264Z,46.8103
2023-04-10T09:10:46.582Z,45.9293
2023-04-10T09:11:49.994Z,46.2436
2023-04-10T09:12:53.274Z,47.5802
2023-04-10T09:13:56.725Z,48.7355
2023-04-10T09:14:56.635Z,47.4109
2023-04-10T09:15:56.722Z,45.5336
2023-04-10T09:17:00.055Z,45.7080
2023-04-10T09:18:03.489Z,46.3450
2023-04-10T09:19:05.721Z,45.5839
2023-04-10T09:20:03.563Z,45.6864
2023-04-10T09:21:06.878Z,44.7684
2023-04-10T09:22:10.233Z,46.6147
2023-04-10T09:23:13.535Z,48.2772
2023-04-10T09:24:13.633Z,50.2325
2023-04-10T09:25:16.990Z,48.7912
2023-04-10T09:26:17.107Z,47.5794
2023-04-10T09:27:20.505Z,47.4446
2023-04-10T09:28:23.792Z,47.2773
2023-04-10T09:29:27.096Z,45.4609
2023-04-10T09:30:30.404Z,45.6220
2023-04-10T09:31:33.726Z,44.0550
2023-04-10T09:32:37.061Z,45.7742
2023-04-10T09:33:40.362Z,47.2980
2023-04-10T09:34:43.690Z,45.6462
2023-04-10T09:35:47.002Z,46.3912
2023-04-10T09:36:50.366Z,47.0798
2023-04-10T09:37:53.705Z,46.1558
2023-04-10T09:38:57.044Z,43.1208
2023-04-10T09:40:00.418Z,42.1897
2023-04-10T09:41:03.725Z,40.8124
2023-04-10T09:42:07.044Z,42.0503
2023-04-10T09:43:10.337Z,42.8434
2023-04-10T09:44:13.700Z,41.6515
2023-04-10T09:45:17.014Z,42.5024
2023-04-10T09:46:20.392Z,44.2824
2023-04-10T09:47:23.758Z,44.6763
2023-04-10T09:48:27.140Z,46.6679
2023-04-10T09:49:30.516Z,43.4642
2023-04-10T09:50:36.314Z,45.4640
2023-04-10T09:51:34.291Z,44.1436
2023-04-10T09:52:37.565Z,43.6912
2023-04-10T09:53:37.664Z,45.1922
2023-04-10T09:54:40.967Z,43.4631
2023-04-10T09:55:44.278Z,42.6494
2023-04-10T09:56:47.589Z,43.8900
2023-04-10T09:57:50.943Z,44.4781
2023-04-10T09:58:54.414Z,44.2331
2023-04-10T09:59:54.332Z,43.8440
2023-04-10T10:00:57.687Z,43.8510
2023-04-10T10:02:01.099Z,44.0057
2023-04-10T10:03:04.698Z,45.3340
2023-04-10T10:04:04.869Z,43.9773
2023-04-10T10:05:08.268Z,44.4277
2023-04-10T10:06:08.530Z,42.5937
2023-04-10T10:07:11.871Z,45.8028
2023-04-10T10:08:15.176Z,45.4019
2023-04-10T10:09:19.498Z,44.9982
2023-04-10T10:10:19.353Z,42.8183
2023-04-10T10:11:22.624Z,43.8719
2023-04-10T10:12:25.932Z,44.0603
2023-04-10T10:13:29.462Z,45.5684
2023-04-10T10:14:32.809Z,42.5641
2023-04-10T10:15:36.126Z,43.6929
2023-04-10T10:16:39.496Z,42.3497
2023-04-10T10:17:42.778Z,41.1782
2023-04-10T10:18:46.059Z,43.3529
2023-04-10T10:19:49.377Z,43.2244
2023-04-10T10:20:52.656Z,44.2277
2023-04-10T10:21:52.672Z,45.2974
2023-04-10T10:22:55.965Z,44.1433
2023-04-10T10:23:56.016Z,42.8479
2023-04-10T10:24:59.301Z,45.0646
2023-04-10T10:26:03.971Z,44.7038
2023-04-10T10:27:03.795Z,44.5540
2023-04-10T10:28:07.091Z,44.7325
2023-04-10T10:29:10.370Z,43.8032
2023-04-10T10:30:28.321Z,44.2487
2023-04-10T10:31:15.948Z,45.3367
2023-04-10T10:32:19.316Z,43.7216
2023-04-10T10:33:22.610Z,43.7001
2023-04-10T10:34:25.929Z,42.5404
2023-04-10T10:35:30.108Z,42.3212
2023-04-10T10:36:30.035Z,41.8543
2023-04-10T10:37:33.307Z,43.6681
2023-04-10T10:38:36.905Z,41.9533
2023-04-10T10:39:40.190Z,41.5705
2023-04-10T10:40:43.529Z,44.7802
2023-04-10T10:41:43.570Z,42.6259
2023-04-10T10:42:46.916Z,42.4213
2023-04-10T10:43:50.160Z,41.3286
2023-04-10T10:44:53.472Z,40.7527
2023-04-10T10:45:56.809Z,41.6514
2023-04-10T10:47:00.138Z,41.4637
2023-04-10T10:48:03.539Z,42.3206
2023-04-10T10:49:03.534Z,39.2643
2023-04-10T10:50:06.822Z,40.1029
2023-04-10T10:51:10.153Z,40.7098
2023-04-10T10:52:13.534Z,40.0757
2023-04-10T10:53:16.845Z,39.4696
2023-04-10T10:54:20.157Z,39.8499
2023-04-10T10:55:23.490Z,39.8299
2023-04-10T10:56:26.823Z,39.7576
2023-04-10T10:57:30.127Z,39.7131
2023-04-10T10:58:33.470Z,38.7516
2023-04-10T10:59:36.790Z,37.9375
2023-04-10T11:00:40.073Z,37.9977
2023-04-10T11:01:43.530Z,40.0827
2023-04-10T11:02:43.481Z,41.5879
2023-04-10T11:03:43.473Z,42.7143
2023-04-10T11:04:46.905Z,42.9846
2023-04-10T11:05:50.241Z,42.8321
2023-04-10T11:06:53.577Z,42.0689
2023-04-10T11:07:56.900Z,43.1664
2023-04-10T11:08:57.311Z,42.2612
2023-04-10T11:09:57.313Z,41.1039
2023-04-10T11:11:00.588Z,39.4195
2023-04-10T11:12:04.138Z,41.3373
2023-04-10T11:13:03.924Z,41.4201
2023-04-10T11:14:07.261Z,40.3928
2023-04-10T11:15:10.570Z,40.1669
2023-04-10T11:16:13.936Z,40.5361
2023-04-10T11:17:17.259Z,39.1183
2023-04-10T11:18:20.548Z,38.8089
2023-04-10T11:19:24.295Z,38.0914
2023-04-10T11:20:24.297Z,37.5105
2023-04-10T11:21:27.609Z,38.2094
2023-04-10T11:22:30.960Z,38.0863
2023-04-10T11:23:34.254Z,37.7915
2023-04-10T11:24:37.574Z,37.5407
2023-04-10T11:25:40.877Z,38.6570
2023-04-10T11:26:44.379Z,40.3698
2023-04-10T11:27:47.774Z,40.1877
2023-04-10T11:28:51.289Z,39.4548
2023-04-10T11:29:54.579Z,38.1962
2023-04-10T11:30:57.884Z,37.6198
2023-04-10T11:32:01.270Z,38.5433
2023-04-10T11:33:01.297Z,38.7526
2023-04-10T11:34:02.202Z,36.6052
2023-04-10T11:35:05.725Z,38.4931
2023-04-10T11:36:05.569Z,38.0226
2023-04-10T11:37:05.601Z,37.9453
2023-04-10T11:38:08.941Z,38.4580
2023-04-10T11:39:12.348Z,40.2749
2023-04-10T11:40:15.662Z,40.2799
2023-04-10T11:41:19.092Z,42.6713
2023-04-10T11:42:22.369Z,39.8622
2023-04-10T11:43:25.677Z,40.6874
2023-04-10T11:44:29.151Z,39.4712
2023-04-10T11:45:32.444Z,37.2457
2023-04-10T11:46:35.725Z,38.3433
2023-04-10T11:47:39.112Z,37.9338
2023-04-10T11:48:42.405Z,36.3316
2023-04-10T11:49:45.742Z,37.0075
2023-04-10T11:50:49.019Z,39.0109
2023-04-10T11:51:52.334Z,37.7256
2023-04-10T11:52:56.576Z,35.4383
2023-04-10T11:53:56.503Z,37.8967
2023-04-10T11:54:59.806Z,35.8673
2023-04-10T11:56:03.119Z,36.9051
2023-04-10T11:57:06.411Z,37.8390
2023-04-10T11:58:09.714Z,37.4121
2023-04-10T11:59:13.042Z,36.5531
2023-04-10T12:00:16.360Z,37.4208
2023-04-10T12:01:19.750Z,35.7713
2023-04-10T12:02:23.118Z,38.2495
2023-04-10T12:03:26.621Z,38.9670
2023-04-10T12:04:26.708Z,39.8081
2023-04-10T12:05:26.603Z,38.5918
2023-04-10T12:06:29.873Z,37.7681
2023-04-10T12:07:33.219Z,35.0164
2023-04-10T12:08:36.478Z,35.5046
2023-04-10T12:09:38.039Z,37.3059
2023-04-10T12:10:41.308Z,36.4345
2023-04-10T12:11:41.371Z,35.7373
2023-04-10T12:12:44.652Z,36.2543
2023-04-10T12:13:47.950Z,38.3657
2023-04-10T12:14:47.975Z,37.6018
2023-04-10T12:15:51.296Z,36.9262
2023-04-10T12:16:51.319Z,34.3830
2023-04-10T12:17:54.660Z,34.9898
2023-04-10T12:18:58.200Z,36.2733
2023-04-10T12:19:58.091Z,36.9228
2023-04-10T12:21:01.456Z,36.1622
2023-04-10T12:22:01.597Z,36.2681
2023-04-10T12:23:04.865Z,36.6373
2023-04-10T12:24:08.224Z,34.6559
2023-04-10T12:25:11.520Z,33.9848
2023-04-10T12:26:14.849Z,35.0701
2023-04-10T12:27:14.836Z,35.4144
2023-04-10T12:28:18.140Z,36.1115
2023-04-10T12:29:21.500Z,35.5204
2023-04-10T12:30:25.614Z,33.8234
2023-04-10T12:31:25.439Z,34.3003
2023-04-10T12:32:28.734Z,33.2295
2023-04-10T12:33:32.032Z,33.6294
2023-04-10T12:34:35.356Z,36.3255
2023-04-10T12:35:38.688Z,36.5059
2023-04-10T12:36:42.060Z,34.1042
2023-04-10T12:37:45.404Z,33.7984
2023-04-10T12:38:48.709Z,36.1140
2023-04-10T12:39:48.737Z,36.6459